createdAt,value
2023-04-19T00:01:09.140Z,3.50
2023-04-19T00:06:10.555Z,3.80
2023-04-19T00:11:09.085Z,3.37
2023-04-19T00:16:08.692Z,3.50
2023-04-19T00:21:08.767Z,4.00
2023-04-19T00:26:07.407Z,3.13
2023-04-19T00:31:06.026Z,3.80
2023-04-19T00:36:04.573Z,3.50
2023-04-19T00:42:04.621Z,3.20
2023-04-19T00:47:04.628Z,4.00
2023-04-19T00:52:03.501Z,4.53
2023-04-19T00:57:02.043Z,4.13
2023-04-19T01:02:00.749Z,3.60
2023-04-19T01:07:03.539Z,4.20
2023-04-19T01:12:03.868Z,4.70
2023-04-19T01:17:02.415Z,4.53
2023-04-19T01:22:03.473Z,4.83
2023-04-19T01:27:03.826Z,4.37
2023-04-19T01:32:02.337Z,4.53
2023-04-19T01:37:00.835Z,4.40
2023-04-19T01:41:59.256Z,3.93
2023-04-19T01:46:59.045Z,3.77
2023-04-19T01:51:57.586Z,3.70
2023-04-19T01:56:56.301Z,3.93
2023-04-19T02:01:54.428Z,3.90
2023-04-19T02:06:54.573Z,3.27
2023-04-19T02:11:53.018Z,3.10
2023-04-19T02:16:53.447Z,3.33
2023-04-19T02:21:52.150Z,3.20
2023-04-19T02:26:52.312Z,4.10
2023-04-19T02:31:50.932Z,3.40
2023-04-19T02:36:49.397Z,3.60
2023-04-19T02:41:47.893Z,3.30
2023-04-19T02:46:51.727Z,3.03
2023-04-19T02:51:52.654Z,3.70
2023-04-19T02:56:51.509Z,3.53
2023-04-19T03:01:51.614Z,3.37
2023-04-19T03:06:51.449Z,3.70
2023-04-19T03:11:50.065Z,3.33
2023-04-19T03:16:50.925Z,3.77
2023-04-19T03:21:49.789Z,3.07
2023-04-19T03:26:49.557Z,3.40
2023-04-19T03:31:54.061Z,3.47
2023-04-19T03:36:52.610Z,3.70
2023-04-19T03:41:51.237Z,2.93
2023-04-19T03:46:58.094Z,2.73
2023-04-19T03:52:00.902Z,3.43
2023-04-19T03:56:59.913Z,3.63
2023-04-19T04:02:00.310Z,3.70
2023-04-19T04:06:58.912Z,3.37
2023-04-19T04:11:57.449Z,3.43
2023-04-19T04:16:56.584Z,3.90
2023-04-19T04:21:56.469Z,3.70
2023-04-19T04:26:55.522Z,3.20
2023-04-19T04:31:57.924Z,3.10
2023-04-19T04:37:04.095Z,3.57
2023-04-19T04:42:03.160Z,3.47
2023-04-19T04:47:01.789Z,2.83
2023-04-19T04:52:04.898Z,3.13
2023-04-19T04:57:09.872Z,2.70
2023-04-19T05:02:08.587Z,2.80
2023-04-19T05:07:08.604Z,2.87
2023-04-19T05:12:07.877Z,2.73
2023-04-19T05:17:07.735Z,2.53
2023-04-19T05:22:08.189Z,2.80
2023-04-19T05:27:09.846Z,2.33
2023-04-19T05:32:08.602Z,2.60
2023-04-19T05:37:20.227Z,2.57
2023-04-19T05:42:18.848Z,2.67
2023-04-19T05:47:17.924Z,2.03
2023-04-19T05:52:43.490Z,2.23
2023-04-19T05:57:42.141Z,2.20
2023-04-19T06:02:41.107Z,1.80
2023-04-19T06:07:54.423Z,2.03
2023-04-19T06:12:54.262Z,2.10
2023-04-19T06:17:52.865Z,1.63
2023-04-19T06:22:52.405Z,1.27
2023-04-19T06:27:51.125Z,1.67
2023-04-19T06:32:50.014Z,1.00
2023-04-19T06:37:49.444Z,1.47
2023-04-19T06:42:50.850Z,1.30
2023-04-19T06:47:49.094Z,1.20
2023-04-19T06:52:48.284Z,1.40
2023-04-19T06:57:46.806Z,1.30
2023-04-19T07:02:46.833Z,1.67
2023-04-19T07:07:45.504Z,1.00
2023-04-19T07:12:44.025Z,1.23
2023-04-19T07:17:42.826Z,1.27
2023-04-19T07:22:42.698Z,1.10
2023-04-19T07:27:41.473Z,1.60
2023-04-19T07:32:40.274Z,1.93
2023-04-19T07:37:38.991Z,1.50
2023-04-19T07:42:38.830Z,1.00
2023-04-19T07:47:37.398Z,1.50
2023-04-19T07:52:35.877Z,2.10
2023-04-19T07:57:34.387Z,1.17
2023-04-19T08:02:34.356Z,1.30
2023-04-19T08:07:32.942Z,2.50
2023-04-19T08:12:37.347Z,1.70
2023-04-19T08:17:44.432Z,1.60
2023-04-19T08:22:43.215Z,1.73
2023-04-19T08:27:41.815Z,2.00
2023-04-19T08:32:40.372Z,1.97
2023-04-19T08:37:40.297Z,1.40
2023-04-19T08:42:38.840Z,1.77
2023-04-19T08:47:51.847Z,1.70
2023-04-19T08:53:02.797Z,1.80
2023-04-19T08:58:15.267Z,1.80
2023-04-19T09:03:59.511Z,1.80
2023-04-19T09:14:21.099Z,1.67
2023-04-19T09:19:24.947Z,1.50
2023-04-19T09:29:41.899Z,1.77
2023-04-19T09:34:53.512Z,2.10
2023-04-19T09:39:54.254Z,2.10
2023-04-19T09:50:21.945Z,1.90
2023-04-19T09:55:27.857Z,2.50
2023-04-19T10:00:29.833Z,2.40
2023-04-19T10:05:34.827Z,2.10
2023-04-19T10:10:42.016Z,1.67
2023-04-19T10:15:51.944Z,2.03
2023-04-19T10:20:56.929Z,2.30
2023-04-19T10:25:59.890Z,2.10
2023-04-19T10:31:02.562Z,2.07
2023-04-19T10:36:02.378Z,1.97
2023-04-19T10:41:04.337Z,2.40
2023-04-19T10:46:07.793Z,2.20
2023-04-19T10:51:12.664Z,2.43
2023-04-19T10:56:12.806Z,2.17
2023-04-19T11:01:37.551Z,2.70
2023-04-19T11:06:36.539Z,2.17
2023-04-19T11:11:37.679Z,1.80
2023-04-19T11:16:45.545Z,2.30
2023-04-19T11:21:47.879Z,2.63
2023-04-19T11:26:47.792Z,2.50
2023-04-19T11:31:47.850Z,2.60
2023-04-19T11:37:08.469Z,2.60
2023-04-19T11:42:18.987Z,3.17
2023-04-19T11:47:17.656Z,2.30
2023-04-19T11:52:22.643Z,2.40
2023-04-19T11:57:32.310Z,2.17
2023-04-19T12:02:30.790Z,2.10
2023-04-19T12:07:29.393Z,2.93
2023-04-19T12:12:35.405Z,3.00
2023-04-19T12:17:34.513Z,2.57
2023-04-19T12:22:34.924Z,2.40
2023-04-19T12:27:34.839Z,2.60
2023-04-19T12:32:33.283Z,2.93
2023-04-19T12:37:31.741Z,2.53
2023-04-19T12:42:30.464Z,2.80
2023-04-19T12:47:31.063Z,2.93
2023-04-19T12:52:29.597Z,2.30
2023-04-19T12:57:28.148Z,2.90
2023-04-19T13:02:27.058Z,3.33
2023-04-19T13:07:28.574Z,2.80
2023-04-19T13:12:26.775Z,2.10
2023-04-19T13:17:25.707Z,2.43
2023-04-19T13:22:24.319Z,2.97
2023-04-19T13:27:24.230Z,2.43
2023-04-19T13:32:22.769Z,2.83
2023-04-19T13:37:21.253Z,3.07
2023-04-19T13:42:20.138Z,2.53
2023-04-19T13:47:20.158Z,3.20
2023-04-19T13:52:18.987Z,2.80
2023-04-19T13:57:17.520Z,2.43
2023-04-19T14:02:16.131Z,2.40
2023-04-19T14:07:16.060Z,2.93
2023-04-19T14:12:14.573Z,2.73
2023-04-19T14:17:13.087Z,2.60
2023-04-19T14:22:11.702Z,2.07
2023-04-19T14:27:12.181Z,2.67
2023-04-19T14:32:23.551Z,2.60
2023-04-19T14:37:24.732Z,2.30
2023-04-19T14:42:24.346Z,2.37
2023-04-19T14:47:23.104Z,2.00
2023-04-19T14:52:21.711Z,2.57
2023-04-19T14:57:20.903Z,2.40
2023-04-19T15:02:20.805Z,2.47
2023-04-19T15:07:19.061Z,2.57
2023-04-19T15:12:17.566Z,2.80
2023-04-19T15:17:16.691Z,2.70
2023-04-19T15:22:16.519Z,2.10
2023-04-19T15:27:15.023Z,2.80
2023-04-19T15:32:13.497Z,3.07
2023-04-19T15:37:12.914Z,2.70
2023-04-19T15:42:12.760Z,2.53
2023-04-19T15:47:11.266Z,3.17
2023-04-19T15:52:10.038Z,2.37
2023-04-19T15:57:08.551Z,2.20
2023-04-19T16:02:08.601Z,3.07
2023-04-19T16:07:07.863Z,2.30
2023-04-19T16:12:06.578Z,3.03
2023-04-19T16:17:04.729Z,2.27
2023-04-19T16:22:05.799Z,2.70
2023-04-19T16:27:04.731Z,2.80
2023-04-19T16:32:03.573Z,1.80
2023-04-19T16:37:03.509Z,2.63
2023-04-19T16:42:02.301Z,2.13
2023-04-19T16:47:00.804Z,2.20
2023-04-19T16:51:59.375Z,2.60
2023-04-19T16:56:59.252Z,2.40
2023-04-19T17:02:01.422Z,2.60
2023-04-19T17:07:00.852Z,2.13
2023-04-19T17:12:00.704Z,2.00
2023-04-19T17:16:58.865Z,1.90
2023-04-19T17:21:58.957Z,2.10
2023-04-19T17:26:57.596Z,2.47
2023-04-19T17:31:57.531Z,2.10
2023-04-19T17:36:56.121Z,2.40
2023-04-19T17:41:54.653Z,2.23
2023-04-19T17:46:53.173Z,2.27
2023-04-19T17:51:53.491Z,3.03
2023-04-19T17:56:52.869Z,2.70
2023-04-19T18:01:51.458Z,3.00
2023-04-19T18:06:50.223Z,3.30
2023-04-19T18:11:49.756Z,2.70
2023-04-19T18:16:48.506Z,2.70
2023-04-19T18:21:46.759Z,2.80
2023-04-19T18:26:44.922Z,3.57
2023-04-19T18:31:45.197Z,2.20
2023-04-19T18:36:43.802Z,3.03
2023-04-19T18:41:41.974Z,2.70
2023-04-19T18:46:40.545Z,3.00
2023-04-19T18:51:40.572Z,3.00
2023-04-19T19:01:40.654Z,2.70
2023-04-19T19:06:40.913Z,2.80
2023-04-19T19:11:55.428Z,3.37
2023-04-19T19:16:55.334Z,3.17
2023-04-19T19:21:55.363Z,2.57
2023-04-19T19:26:54.001Z,2.90
2023-04-19T19:31:52.518Z,2.70
2023-04-19T19:36:51.454Z,3.23
2023-04-19T19:42:05.426Z,3.17
2023-04-19T19:47:09.730Z,2.60
2023-04-19T19:52:10.323Z,2.17
2023-04-19T19:58:06.888Z,2.30
2023-04-19T20:02:33.625Z,2.57
2023-04-19T20:07:58.953Z,2.30
2023-04-19T20:12:53.322Z,2.50
2023-04-19T20:17:51.576Z,2.83
2023-04-19T20:22:50.154Z,3.37
2023-04-19T20:27:48.684Z,4.43
2023-04-19T20:32:50.601Z,3.90
2023-04-19T20:37:49.308Z,4.53
2023-04-19T20:42:47.880Z,4.93
2023-04-19T20:47:47.433Z,4.60
2023-04-19T20:52:46.321Z,4.50
2023-04-19T20:57:44.840Z,3.90
2023-04-19T21:02:43.397Z,4.70
2023-04-19T21:07:43.274Z,4.37
2023-04-19T21:12:41.722Z,6.30
2023-04-19T21:17:40.005Z,3.83
2023-04-19T21:22:38.952Z,3.30
2023-04-19T21:27:38.773Z,3.43
2023-04-19T21:32:37.367Z,4.20
2023-04-19T21:37:36.876Z,3.30
2023-04-19T21:42:35.570Z,3.20
2023-04-19T21:47:35.974Z,3.80
2023-04-19T21:52:34.531Z,3.90
2023-04-19T21:57:33.842Z,3.17
2023-04-19T22:02:32.509Z,3.20
2023-04-19T22:07:32.560Z,2.90
2023-04-19T22:12:31.305Z,3.40
2023-04-19T22:17:30.252Z,2.20
2023-04-19T22:22:28.827Z,2.40
2023-04-19T22:27:28.709Z,2.80
2023-04-19T22:32:27.186Z,2.70
2023-04-19T22:37:25.720Z,3.10
2023-04-19T22:42:24.221Z,3.93
2023-04-19T22:47:24.144Z,3.40
2023-04-19T22:52:22.733Z,3.37
2023-04-19T22:57:21.303Z,3.40
2023-04-19T23:02:19.457Z,3.10
2023-04-19T23:07:21.306Z,3.27
2023-04-19T23:12:19.800Z,3.50
2023-04-19T23:17:18.556Z,3.17
2023-04-19T23:22:17.986Z,3.87
2023-04-19T23:27:17.849Z,3.53
2023-04-19T23:32:18.464Z,3.83
2023-04-19T23:37:17.051Z,4.00
2023-04-19T23:42:17.312Z,3.10
2023-04-19T23:47:16.289Z,2.70
2023-04-19T23:52:14.898Z,3.57
2023-04-19T23:57:13.369Z,2.40
